Flight Track Log - Related Links

Times and Time Zones

All times are in EDT time to prevent confusion due to time zone crossing. See the N9533T flight status page for this flight to view local times or setup timezone preferences in your user account.

Time Position Orientation Groundspeed Altitude Reporting Facility
EDT Latitude Longitude Course Direction KTS MPH feet Rate Location/Type
Fri 01:56:51 PM 39.5500 -95.1333 123° Southeast 98 113 2,200  Level Kansas City TRACON
Fri 01:57:51 PM 39.5333 -95.1000 123° Southeast 103 119 2,800 550 Climbing Kansas City TRACON
Fri 01:58:51 PM 39.5000 -95.0833 159° South 110 127 3,300 450 Climbing Kansas City TRACON
Fri 01:59:51 PM 39.4833 -95.0500 123° Southeast 118 136 3,700 650 Climbing Kansas City TRACON
Fri 02:00:51 PM 39.4667 -95.0167 123° Southeast 108 124 4,600 652 Climbing Kansas City TRACON
Fri 02:01:23 PM 39.4653 -95.0028 97° East 111 128 4,700 652 Climbing Kansas City Center
Fri 02:02:23 PM 39.4422 -94.9644 128° Southeast 110 127 5,600 689 Climbing Kansas City Center
Fri 02:03:25 PM 39.4242 -94.9306 125° Southeast 112 129 6,100 576 Climbing Kansas City Center
Fri 02:04:28 PM 39.4056 -94.8972 126° Southeast 112 129 6,800 488 Climbing Kansas City Center
Fri 02:05:28 PM 39.3850 -94.8622 127° Southeast 120 138 7,100 98 Climbing Kansas City Center
Fri 02:06:30 PM 39.3622 -94.8197 125° Southeast 138 159 7,000 -48 Descending Kansas City Center
Fri 02:07:34 PM 39.3386 -94.7783 126° Southeast 140 161 7,000 48 Level Kansas City Center
Fri 02:08:34 PM 39.3122 -94.7306 126° Southeast 139 160 7,100  Climbing Kansas City Center
Fri 02:09:39 PM 39.2864 -94.6983 136° Southeast 129 148 7,000 -48 Descending Kansas City Center
Fri 02:10:40 PM 39.2558 -94.6750 149° Southeast 128 147 7,000  Level Kansas City Center
Fri 02:11:41 PM 39.2253 -94.6511 149° Southeast 128 147 7,000  Level Kansas City Center
Fri 02:12:45 PM 39.2028 -94.6136 128° Southeast 128 147 7,000 48 Level Kansas City Center
Fri 02:13:45 PM 39.1825 -94.5761 125° Southeast 129 148 7,100  Climbing Kansas City Center
Fri 02:14:49 PM 39.1600 -94.5367 126° Southeast 132 152 7,000  Descending Kansas City Center
Fri 02:15:50 PM 39.1339 -94.4892 125° Southeast 133 153 7,100 48 Climbing Kansas City Center
Fri 02:16:54 PM 39.1131 -94.4475 123° Southeast 135 155 7,100 -48 Level Kansas City Center
Fri 02:17:55 PM 39.0919 -94.4075 124° Southeast 135 155 7,000 -49 Descending Kansas City Center
Fri 02:18:56 PM 39.0711 -94.3678 124° Southeast 135 155 7,000  Level Kansas City Center
Fri 02:20:00 PM 39.0492 -94.3292 126° Southeast 135 155 7,000  Level Kansas City Center
Fri 02:21:01 PM 39.0231 -94.2828 126° Southeast 134 154 7,000  Level Kansas City Center
Fri 02:22:01 PM 38.9994 -94.2436 128° Southeast 136 157 7,000 48 Level Kansas City Center
Fri 02:23:05 PM 38.9767 -94.2044 127° Southeast 136 157 7,100 47 Climbing Kansas City Center
Fri 02:24:08 PM 38.9558 -94.1639 123° Southeast 136 157 7,100 -48 Level Kansas City Center
Fri 02:25:09 PM 38.9328 -94.1242 127° Southeast 137 158 7,000 -48 Descending Kansas City Center
Fri 02:26:13 PM 38.9119 -94.0856 125° Southeast 136 157 7,000 48 Level Kansas City Center
Fri 02:27:13 PM 38.8864 -94.0392 125° Southeast 135 155 7,100  Climbing Kansas City Center
Fri 02:28:14 PM 38.8650 -93.9997 125° Southeast 135 155 7,000 -48 Descending Kansas City Center
Fri 02:29:18 PM 38.8428 -93.9614 127° Southeast 134 154 7,000  Level Kansas City Center
Fri 02:30:19 PM 38.8211 -93.9206 124° Southeast 135 155 7,000 49 Level Kansas City Center
Fri 02:31:20 PM 38.7992 -93.8800 125° Southeast 137 158 7,100  Climbing Kansas City Center
Fri 02:32:23 PM 38.7781 -93.8381 123° Southeast 138 159 7,000  Descending Kansas City Center
Fri 02:33:24 PM 38.7517 -93.7883 124° Southeast 139 160 7,100  Climbing Kansas City Center
Fri 02:34:29 PM 38.7286 -93.7478 126° Southeast 140 161 7,000  Descending Kansas City Center
Fri 02:35:30 PM 38.7083 -93.7103 125° Southeast 140 161 7,100  Climbing Kansas City Center
Fri 02:36:33 PM 38.6806 -93.6619 126° Southeast 140 161 7,000 -48 Descending Kansas City Center
Fri 02:37:34 PM 38.6547 -93.6236 131° Southeast 140 161 7,000  Level Kansas City Center
Fri 02:38:35 PM 38.6328 -93.5833 125° Southeast 140 161 7,000  Level Kansas City Center
Fri 02:39:39 PM 38.6114 -93.5411 123° Southeast 140 161 7,000 48 Level Kansas City Center
Fri 02:40:39 PM 38.5872 -93.5019 128° Southeast 140 161 7,100  Climbing Kansas City Center
Fri 02:41:44 PM 38.5644 -93.4611 125° Southeast 140 161 7,000 -48 Descending Kansas City Center
Fri 02:42:45 PM 38.5344 -93.4144 129° Southeast 140 161 7,000 49 Level Kansas City Center
Fri 02:43:46 PM 38.5164 -93.3700 117° Southeast 140 161 7,100 -144 Climbing Kansas City Center
Fri 02:44:50 PM 38.4922 -93.3275 126° Southeast 143 165 6,700 -339 Descending Kansas City Center
Fri 02:45:50 PM 38.4658 -93.2889 131° Southeast 143 165 6,400 -290 Descending Kansas City Center
Fri 02:46:54 PM 38.4417 -93.2458 126° Southeast 144 166 6,100 -336 Descending Kansas City Center
Fri 02:47:55 PM 38.4200 -93.2031 123° Southeast 144 166 5,700 -443 Descending Kansas City Center
Fri 02:48:56 PM 38.3875 -93.1614 135° Southeast 142 163 5,200 -422 Descending Kansas City Center
Fri 02:50:03 PM 38.3633 -93.1225 128° Southeast 137 158 4,800 -528 Descending Kansas City Center
Fri 02:51:01 PM 38.3414 -93.0847 127° Southeast 138 159 4,100 -400 Descending Kansas City Center
Fri 02:52:03 PM 38.3197 -93.0478 127° Southeast 137 158 4,000 -49 Descending Kansas City Center
Fri 02:53:04 PM 38.3000 -93.0147 127° Southeast 127 146 4,000 51 Level Kansas City Center
Fri 02:54:01 PM 38.2792 -92.9769 125° Southeast 130 150 4,100  Climbing Kansas City Center
Fri 02:55:09 PM 38.2589 -92.9392 124° Southeast 126 145 4,000  Descending Kansas City Center
Fri 02:56:13 PM 38.2361 -92.8961 124° Southeast 127 146 4,100 94 Climbing Kansas City Center
Fri 02:58:00 PM 38.1951 -92.8306 127° Southeast  Level FlightAware Approximate
Fri 03:05:00 PM 38.1104 -92.6806 122° Southeast  Level Estimated
Fri 03:06:00 PM 38.1104 -92.6806 122° Southeast  Level Estimated
Fri 03:07:00 PM 38.1104 -92.6806 122° Southeast  Level Estimated
Fri 03:08:00 PM 38.1104 -92.6806 122° Southeast  Level Estimated
Fri 03:09:00 PM 38.1104 -92.6806 122° Southeast  Level Estimated
Fri 03:10:00 PM 38.1104 -92.6806 122° Southeast  Level Estimated

Login

Don't have an account? Register now (free) for customized features, flight alerts, and more!